Viborg, South Dakota
Current Conditions -  °F | °C
As of 2:55 AM on Sunday 26 Oct 2014 (Local Time) from KYKN Reporting Station
Clear Clear  
Wind Chill: 41°   Ceiling: Unl
Heat Index: 45°   Visibility: 10mi
Dew Point: 34°   Wind: 7mph
Humidity: 66%   Direction: 90°E
Pressure: 29.96"   Gusts: NA
Location:  43.17°N, 97.08°W
Report Text: KYKN 260755Z AUTO 09006KT 10SM CLR 07/01 A2996 RMK AO1
Loading
Personal Weather Stations






























Interactive Weather Map
Tropical Storm Tracking
New forecast layout! Learn more

10-Day Weather Forecast

Advertisements
Track Severe Weather on mobile